createdAt,value
2018-04-26T00:00:27.949Z,0
2018-04-26T00:01:49.769Z,0
2018-04-26T00:03:11.559Z,0
2018-04-26T00:04:33.363Z,0
2018-04-26T00:05:55.414Z,0
2018-04-26T00:07:17.477Z,0
2018-04-26T00:08:39.007Z,0
2018-04-26T00:10:01.063Z,0
2018-04-26T00:11:23.115Z,0
2018-04-26T00:12:44.660Z,0
2018-04-26T00:14:06.725Z,0
2018-04-26T00:15:28.523Z,0
2018-04-26T00:16:50.589Z,0
2018-04-26T00:18:12.391Z,0
2018-04-26T00:19:34.192Z,0
2018-04-26T00:20:56.241Z,0
2018-04-26T00:22:17.770Z,0
2018-04-26T00:23:39.826Z,0
2018-04-26T00:25:01.879Z,0
2018-04-26T00:26:23.935Z,0
2018-04-26T00:27:45.728Z,0
2018-04-26T00:29:07.777Z,0
2018-04-26T00:30:29.559Z,0
2018-04-26T00:31:51.097Z,0
2018-04-26T00:33:13.236Z,0
2018-04-26T00:34:35.291Z,0
2018-04-26T00:35:57.095Z,0
2018-04-26T00:37:19.150Z,0
2018-04-26T00:38:40.946Z,0
2018-04-26T00:40:02.999Z,0
2018-04-26T00:41:24.800Z,0
2018-04-26T00:42:46.610Z,0
2018-04-26T00:44:08.489Z,0
2018-04-26T00:45:30.295Z,0
2018-04-26T00:46:52.095Z,0
2018-04-26T00:48:13.698Z,0
2018-04-26T00:49:35.485Z,0
2018-04-26T00:50:57.023Z,0
2018-04-26T00:52:18.831Z,0
2018-04-26T00:53:40.631Z,0
2018-04-26T00:55:02.688Z,0
2018-04-26T00:56:24.490Z,0
2018-04-26T00:57:46.027Z,0
2018-04-26T00:59:07.821Z,0
2018-04-26T01:00:29.612Z,0
2018-04-26T01:01:51.672Z,0
2018-04-26T01:03:13.734Z,0
2018-04-26T01:04:35.521Z,0
2018-04-26T01:05:57.572Z,0
2018-04-26T01:07:19.643Z,0
2018-04-26T01:08:40.927Z,0
2018-04-26T01:10:02.976Z,0
2018-04-26T01:11:25.016Z,0
2018-04-26T01:12:47.089Z,0
2018-04-26T01:14:09.131Z,0
2018-04-26T01:15:31.177Z,0
2018-04-26T01:16:52.973Z,0
2018-04-26T01:18:15.035Z,0
2018-04-26T01:19:37.095Z,0
2018-04-26T01:20:58.614Z,0
2018-04-26T01:22:20.404Z,0
2018-04-26T01:23:41.930Z,0
2018-04-26T01:25:03.985Z,0
2018-04-26T01:26:26.110Z,0
2018-04-26T01:27:47.906Z,0
2018-04-26T01:29:09.702Z,0
2018-04-26T01:30:31.746Z,0
2018-04-26T01:31:53.536Z,0
2018-04-26T01:33:15.589Z,0
2018-04-26T01:34:37.395Z,0
2018-04-26T01:35:59.458Z,0
2018-04-26T01:37:21.508Z,0
2018-04-26T01:38:43.577Z,0
2018-04-26T01:40:05.632Z,0
2018-04-26T01:41:27.432Z,0
2018-04-26T01:42:49.238Z,0
2018-04-26T01:44:11.019Z,0
2018-04-26T01:45:32.295Z,0
2018-04-26T01:46:54.080Z,0
2018-04-26T01:48:15.871Z,0
2018-04-26T01:49:37.674Z,0
2018-04-26T01:50:59.462Z,0
2018-04-26T01:52:20.997Z,0
2018-04-26T01:53:43.053Z,0
2018-04-26T01:55:04.590Z,0
2018-04-26T01:56:26.387Z,0
2018-04-26T01:57:48.456Z,0
2018-04-26T01:59:09.730Z,0
2018-04-26T02:00:31.538Z,0
2018-04-26T02:01:53.341Z,0
2018-04-26T02:03:15.128Z,0
2018-04-26T02:04:36.932Z,0
2018-04-26T02:05:58.977Z,0
2018-04-26T02:07:21.046Z,0
2018-04-26T02:08:43.109Z,0
2018-04-26T02:10:04.906Z,0
2018-04-26T02:11:26.441Z,0
2018-04-26T02:12:48.494Z,0
2018-04-26T02:14:10.286Z,0
2018-04-26T02:15:31.896Z,0
2018-04-26T02:16:53.960Z,0
2018-04-26T02:18:15.742Z,0
2018-04-26T02:19:37.800Z,0
2018-04-26T02:20:59.345Z,0
2018-04-26T02:22:21.398Z,0
2018-04-26T02:23:43.191Z,0
2018-04-26T02:25:04.992Z,0
2018-04-26T02:26:27.060Z,0
2018-04-26T02:27:48.849Z,0
2018-04-26T02:29:10.897Z,0
2018-04-26T02:30:32.444Z,0
2018-04-26T02:31:54.513Z,0
2018-04-26T02:33:16.588Z,0
2018-04-26T02:34:38.393Z,0
2018-04-26T02:36:00.178Z,0
2018-04-26T02:37:22.229Z,0
2018-04-26T02:38:43.763Z,0
2018-04-26T02:40:05.559Z,0
2018-04-26T02:41:27.368Z,0
2018-04-26T02:42:49.267Z,0
2018-04-26T02:44:10.795Z,0
2018-04-26T02:45:32.068Z,0
2018-04-26T02:46:54.144Z,0
2018-04-26T02:48:16.214Z,0
2018-04-26T02:49:37.762Z,0
2018-04-26T02:50:59.822Z,0
2018-04-26T02:52:21.101Z,0
2018-04-26T02:53:43.152Z,0
2018-04-26T02:55:04.940Z,0
2018-04-26T02:56:26.999Z,0
2018-04-26T02:57:49.085Z,0
2018-04-26T02:59:10.619Z,0
2018-04-26T03:00:32.154Z,0
2018-04-26T03:01:54.215Z,0
2018-04-26T03:03:16.301Z,0
2018-04-26T03:04:38.378Z,0
2018-04-26T03:06:00.447Z,0
2018-04-26T03:07:22.257Z,0
2018-04-26T03:08:44.061Z,0
2018-04-26T03:10:06.123Z,0
2018-04-26T03:11:27.941Z,0
2018-04-26T03:12:50.027Z,0
2018-04-26T03:14:12.097Z,0
2018-04-26T03:15:34.154Z,0
2018-04-26T03:16:56.215Z,0
2018-04-26T03:18:18.325Z,0
2018-04-26T03:19:40.377Z,0
2018-04-26T03:21:01.938Z,0
2018-04-26T03:22:24.005Z,0
2018-04-26T03:23:46.063Z,0
2018-04-26T03:25:07.864Z,0
2018-04-26T03:26:29.922Z,0
2018-04-26T03:27:51.986Z,0
2018-04-26T03:29:14.040Z,0
2018-04-26T03:30:36.096Z,0
2018-04-26T03:31:58.155Z,0
2018-04-26T03:33:19.684Z,0
2018-04-26T03:34:41.221Z,4
2018-04-26T03:36:03.010Z,0
2018-04-26T03:37:24.881Z,4
2018-04-26T03:38:46.675Z,4
2018-04-26T03:40:08.201Z,4
2018-04-26T03:41:29.209Z,4
2018-04-26T03:42:50.748Z,4
2018-04-26T03:44:12.550Z,8
2018-04-26T03:45:34.090Z,12
2018-04-26T03:46:55.876Z,16
2018-04-26T03:48:17.951Z,24
2018-04-26T03:49:39.735Z,32
2018-04-26T03:51:01.534Z,32
2018-04-26T03:52:23.669Z,36
2018-04-26T03:53:45.727Z,40
2018-04-26T03:55:07.770Z,36
2018-04-26T03:56:29.824Z,40
2018-04-26T03:57:51.635Z,44
2018-04-26T03:59:12.917Z,52
2018-04-26T04:00:34.977Z,48
2018-04-26T04:01:57.192Z,48
2018-04-26T04:03:19.243Z,52
2018-04-26T04:04:41.305Z,68
2018-04-26T04:06:03.091Z,84
2018-04-26T04:07:25.138Z,100
2018-04-26T04:08:46.923Z,128
2018-04-26T04:10:08.977Z,196
2018-04-26T04:11:31.045Z,272
2018-04-26T04:12:52.315Z,324
2018-04-26T04:14:14.109Z,368
2018-04-26T04:15:35.916Z,348
2018-04-26T04:16:57.977Z,368
2018-04-26T04:18:20.039Z,472
2018-04-26T04:19:42.099Z,564
2018-04-26T04:21:03.657Z,600
2018-04-26T04:22:25.718Z,524
2018-04-26T04:23:47.516Z,488
2018-04-26T04:25:09.581Z,512
2018-04-26T04:26:31.375Z,548
2018-04-26T04:27:53.444Z,624
2018-04-26T04:29:15.593Z,708
2018-04-26T04:30:37.647Z,764
2018-04-26T04:31:59.715Z,924
2018-04-26T04:33:21.514Z,1024
2018-04-26T04:34:43.579Z,1052
2018-04-26T04:36:05.364Z,1080
2018-04-26T04:37:27.169Z,1016
2018-04-26T04:38:48.960Z,828
2018-04-26T04:40:11.016Z,724
2018-04-26T04:41:32.818Z,788
2018-04-26T04:42:54.621Z,852
2018-04-26T04:44:16.696Z,856
2018-04-26T04:45:38.514Z,784
2018-04-26T04:47:00.308Z,696
2018-04-26T04:48:21.850Z,652
2018-04-26T04:49:43.378Z,692
2018-04-26T04:51:05.461Z,716
2018-04-26T04:52:27.537Z,748
2018-04-26T04:53:49.342Z,836
2018-04-26T04:55:10.886Z,944
2018-04-26T04:56:32.688Z,1048
2018-04-26T04:57:54.502Z,1264
2018-04-26T04:59:16.563Z,1260
2018-04-26T05:00:38.621Z,1160
2018-04-26T05:02:00.866Z,1216
2018-04-26T05:03:22.690Z,1380
2018-04-26T05:04:44.760Z,1404
2018-04-26T05:06:06.561Z,1452
2018-04-26T05:07:28.791Z,1588
2018-04-26T05:08:50.583Z,1316
2018-04-26T05:10:12.127Z,1040
2018-04-26T05:11:34.203Z,1136
2018-04-26T05:12:55.751Z,1476
2018-04-26T05:14:17.299Z,1632
2018-04-26T05:15:39.451Z,1616
2018-04-26T05:17:01.507Z,1744
2018-04-26T05:18:23.574Z,1560
2018-04-26T05:19:45.481Z,1048
2018-04-26T05:21:07.629Z,948
2018-04-26T05:22:29.704Z,732
2018-04-26T05:23:51.568Z,1120
2018-04-26T05:25:13.647Z,1440
2018-04-26T05:26:35.435Z,1316
2018-04-26T05:27:57.504Z,1820
2018-04-26T05:29:19.567Z,1348
2018-04-26T05:30:40.843Z,1436
2018-04-26T05:32:02.651Z,1904
2018-04-26T05:33:24.706Z,1888
2018-04-26T05:34:46.751Z,1672
2018-04-26T05:36:08.545Z,1352
2018-04-26T05:37:30.615Z,1492
2018-04-26T05:38:52.432Z,1820
2018-04-26T05:40:14.490Z,3176
2018-04-26T05:41:36.533Z,3600
2018-04-26T05:42:58.356Z,3472
2018-04-26T05:44:20.146Z,4124
2018-04-26T05:45:42.225Z,4980
2018-04-26T05:47:04.307Z,5136
2018-04-26T05:48:26.109Z,4696
2018-04-26T05:49:47.935Z,5676
2018-04-26T05:51:09.206Z,6132
2018-04-26T05:52:31.293Z,8004
2018-04-26T05:53:53.359Z,8020
2018-04-26T05:55:15.177Z,6620
2018-04-26T05:56:36.975Z,5784
2018-04-26T05:57:58.541Z,5652
2018-04-26T05:59:20.597Z,6084
2018-04-26T06:00:42.654Z,6136
2018-04-26T06:02:04.713Z,6072
2018-04-26T06:03:26.857Z,5860
2018-04-26T06:04:48.984Z,5504
2018-04-26T06:06:10.520Z,4876
2018-04-26T06:07:32.302Z,3716
2018-04-26T06:08:53.844Z,3508
2018-04-26T06:10:15.666Z,3912
2018-04-26T06:11:37.117Z,4192
2018-04-26T06:12:58.642Z,4608
2018-04-26T06:14:20.184Z,5808
2018-04-26T06:15:41.460Z,7512
2018-04-26T06:17:03.438Z,8108
2018-04-26T06:18:24.993Z,7528
2018-04-26T06:19:46.796Z,6100
2018-04-26T06:21:08.604Z,4572
2018-04-26T06:22:30.719Z,3188
2018-04-26T06:23:51.979Z,2580
2018-04-26T06:25:14.261Z,3084
2018-04-26T06:26:36.071Z,3992
2018-04-26T06:27:58.128Z,4288
2018-04-26T06:29:19.957Z,5344
2018-04-26T06:30:42.057Z,6780
2018-04-26T06:32:03.878Z,8176
2018-04-26T06:33:25.945Z,9536
2018-04-26T06:34:48.119Z,10664
2018-04-26T06:36:09.903Z,10552
2018-04-26T06:37:31.996Z,10772
2018-04-26T06:38:54.169Z,12260
2018-04-26T06:40:15.721Z,13800
2018-04-26T06:41:37.267Z,14844
2018-04-26T06:42:59.089Z,15248
2018-04-26T06:44:21.154Z,15088
2018-04-26T06:45:42.972Z,14920
2018-04-26T06:47:04.510Z,14940
2018-04-26T06:48:26.570Z,14748
2018-04-26T06:49:48.622Z,14268
2018-04-26T06:51:10.688Z,14056
2018-04-26T06:52:32.745Z,13684
2018-04-26T06:53:54.820Z,13588
2018-04-26T06:55:16.619Z,12524
2018-04-26T06:56:38.435Z,11292
2018-04-26T06:58:00.009Z,10188
2018-04-26T06:59:21.288Z,9872
2018-04-26T07:00:43.117Z,10252
2018-04-26T07:02:05.203Z,9404
2018-04-26T07:03:27.267Z,7376
2018-04-26T07:04:49.337Z,7156
2018-04-26T07:06:11.628Z,7664
2018-04-26T07:07:33.752Z,7808
2018-04-26T07:08:55.567Z,8328
2018-04-26T07:10:17.654Z,8188
2018-04-26T07:11:39.784Z,7040
2018-04-26T07:13:01.597Z,5924
2018-04-26T07:14:23.424Z,5124
2018-04-26T07:15:45.243Z,6324
2018-04-26T07:17:07.318Z,7920
2018-04-26T07:18:29.128Z,8324
2018-04-26T07:19:50.937Z,8776
2018-04-26T07:21:12.741Z,10416
2018-04-26T07:22:34.824Z,12744
2018-04-26T07:23:56.894Z,15040
2018-04-26T07:25:18.464Z,16128
2018-04-26T07:26:40.554Z,14252
2018-04-26T07:28:02.626Z,11324
2018-04-26T07:29:24.722Z,8528
2018-04-26T07:30:46.787Z,5836
2018-04-26T07:32:08.853Z,4124
2018-04-26T07:33:30.674Z,3236
2018-04-26T07:34:52.511Z,2660
2018-04-26T07:36:14.722Z,2688
2018-04-26T07:37:36.794Z,2636
2018-04-26T07:38:58.621Z,3312
2018-04-26T07:40:20.688Z,5272
2018-04-26T07:41:42.495Z,5592
2018-04-26T07:43:04.574Z,7620
2018-04-26T07:44:26.133Z,7880
2018-04-26T07:45:47.951Z,8504
2018-04-26T07:47:10.028Z,9076
2018-04-26T07:48:31.836Z,10552
2018-04-26T07:49:53.637Z,11888
2018-04-26T07:51:15.706Z,11236
2018-04-26T07:52:37.521Z,10668
2018-04-26T07:53:59.612Z,12372
2018-04-26T07:55:21.705Z,14380
2018-04-26T07:56:43.788Z,16608
2018-04-26T07:58:05.863Z,16928
2018-04-26T07:59:27.681Z,16284
2018-04-26T08:00:49.775Z,13752
2018-04-26T08:02:11.334Z,13984
2018-04-26T08:03:33.157Z,15436
2018-04-26T08:04:55.230Z,15300
2018-04-26T08:06:17.395Z,17376
2018-04-26T08:07:39.479Z,17024
2018-04-26T08:09:01.047Z,17024
2018-04-26T08:10:22.853Z,15660
2018-04-26T08:11:45.087Z,15748
2018-04-26T08:13:07.407Z,19296
2018-04-26T08:14:28.692Z,18784
2018-04-26T08:15:50.479Z,18560
2018-04-26T08:17:12.271Z,16288
2018-04-26T08:18:34.334Z,18528
2018-04-26T08:19:56.554Z,18592
2018-04-26T08:21:18.369Z,17504
2018-04-26T08:22:40.431Z,17536
2018-04-26T08:24:02.232Z,15236
2018-04-26T08:25:24.203Z,10276
2018-04-26T08:26:46.282Z,10480
2018-04-26T08:28:08.369Z,12248
2018-04-26T08:29:30.446Z,16960
2018-04-26T08:30:52.626Z,12712
2018-04-26T08:32:14.708Z,14356
2018-04-26T08:33:36.518Z,14216
2018-04-26T08:34:58.055Z,16132
2018-04-26T08:36:19.851Z,14412
2018-04-26T08:37:41.921Z,13564
2018-04-26T08:39:03.739Z,7840
2018-04-26T08:40:25.028Z,7812
2018-04-26T08:41:47.102Z,6960
2018-04-26T08:43:09.232Z,7764
2018-04-26T08:44:31.296Z,12408
2018-04-26T08:45:53.465Z,17728
2018-04-26T08:47:15.547Z,27232
2018-04-26T08:48:37.347Z,24896
2018-04-26T08:49:59.155Z,24064
2018-04-26T08:51:21.228Z,24128
2018-04-26T08:52:42.829Z,25280
2018-04-26T08:54:04.636Z,25504
2018-04-26T08:55:25.929Z,22656
2018-04-26T08:56:48.003Z,17056
2018-04-26T08:58:10.110Z,18304
2018-04-26T08:59:32.186Z,19360
2018-04-26T09:00:54.261Z,25152
2018-04-26T09:02:16.335Z,18624
2018-04-26T09:03:38.136Z,16592
2018-04-26T09:05:00.230Z,16144
2018-04-26T09:06:22.305Z,17440
2018-04-26T09:07:44.368Z,15332
2018-04-26T09:09:06.184Z,12908
2018-04-26T09:10:27.471Z,12024
2018-04-26T09:11:49.062Z,16172
2018-04-26T09:13:10.883Z,18624
2018-04-26T09:14:32.964Z,22560
2018-04-26T09:15:55.186Z,21824
2018-04-26T09:17:17.381Z,22016
2018-04-26T09:18:39.456Z,21984
2018-04-26T09:20:01.279Z,22752
2018-04-26T09:21:23.120Z,21632
2018-04-26T09:22:45.201Z,23520
2018-04-26T09:24:07.024Z,23520
2018-04-26T09:25:29.109Z,23232
2018-04-26T09:26:51.235Z,24288
2018-04-26T09:28:12.791Z,20480
2018-04-26T09:29:34.870Z,19648
2018-04-26T09:30:56.945Z,23328
2018-04-26T09:32:18.763Z,21696
2018-04-26T09:33:40.568Z,14708
2018-04-26T09:35:02.394Z,13168
2018-04-26T09:36:24.537Z,18368
2018-04-26T09:37:46.349Z,18624
2018-04-26T09:39:08.432Z,20000
2018-04-26T09:40:30.254Z,19456
2018-04-26T09:41:52.062Z,18688
2018-04-26T09:43:14.171Z,11764
2018-04-26T09:44:35.738Z,5464
2018-04-26T09:45:57.289Z,3688
2018-04-26T09:47:19.113Z,4536
2018-04-26T09:48:40.719Z,4192
2018-04-26T09:50:02.845Z,4004
2018-04-26T09:51:24.922Z,3876
2018-04-26T09:52:46.463Z,5640
2018-04-26T09:54:08.274Z,6096
2018-04-26T09:55:30.565Z,7076
2018-04-26T09:56:52.505Z,7320
2018-04-26T09:58:14.320Z,7892
2018-04-26T09:59:35.878Z,8812
2018-04-26T10:00:57.971Z,8832
2018-04-26T10:02:19.505Z,9832
2018-04-26T10:03:41.314Z,12280
2018-04-26T10:05:03.157Z,15576
2018-04-26T10:06:25.259Z,17632
2018-04-26T10:07:47.338Z,15420
2018-04-26T10:09:09.334Z,13152
2018-04-26T10:10:31.473Z,10212
2018-04-26T10:11:53.551Z,5884
2018-04-26T10:13:15.631Z,3256
2018-04-26T10:14:37.719Z,3692
2018-04-26T10:15:59.792Z,4772
2018-04-26T10:17:21.990Z,5024
2018-04-26T10:18:44.085Z,5116
2018-04-26T10:20:05.401Z,5312
2018-04-26T10:21:27.521Z,5720
2018-04-26T10:22:49.422Z,6644
2018-04-26T10:24:11.219Z,7612
2018-04-26T10:25:33.022Z,8848
2018-04-26T10:26:55.120Z,8816
2018-04-26T10:28:17.231Z,8744
2018-04-26T10:29:39.312Z,8752
2018-04-26T10:31:01.371Z,10124
2018-04-26T10:32:23.438Z,14460
2018-04-26T10:33:45.250Z,20960
2018-04-26T10:35:07.345Z,24192
2018-04-26T10:36:29.418Z,23584
2018-04-26T10:37:50.970Z,20064
2018-04-26T10:39:13.055Z,17792
2018-04-26T10:40:34.885Z,17312
2018-04-26T10:41:56.991Z,17664
2018-04-26T10:43:18.536Z,17440
2018-04-26T10:44:40.352Z,17440
2018-04-26T10:46:02.454Z,17312
2018-04-26T10:47:24.272Z,16172
2018-04-26T10:48:46.361Z,14256
2018-04-26T10:50:07.911Z,13140
2018-04-26T10:51:30.005Z,11196
2018-04-26T10:52:51.578Z,9852
2018-04-26T10:54:13.494Z,9040
2018-04-26T10:55:35.559Z,8052
2018-04-26T10:56:57.649Z,8128
2018-04-26T10:58:19.726Z,7700
2018-04-26T10:59:41.285Z,8012
2018-04-26T11:01:03.090Z,7864
2018-04-26T11:02:25.161Z,8404
2018-04-26T11:03:46.969Z,7848
2018-04-26T11:05:09.056Z,9736
2018-04-26T11:06:30.604Z,12476
2018-04-26T11:07:52.415Z,17312
2018-04-26T11:09:14.620Z,12064
2018-04-26T11:10:36.186Z,5024
2018-04-26T11:11:58.001Z,2396
2018-04-26T11:13:20.056Z,2276
2018-04-26T11:14:42.156Z,2516
2018-04-26T11:16:03.969Z,2788
2018-04-26T11:17:26.314Z,2684
2018-04-26T11:18:48.135Z,2968
2018-04-26T11:20:10.225Z,3456
2018-04-26T11:21:32.562Z,4088
2018-04-26T11:22:54.642Z,5276
2018-04-26T11:24:16.549Z,6640
2018-04-26T11:25:38.725Z,7992
2018-04-26T11:27:00.806Z,9472
2018-04-26T11:28:22.907Z,9604
2018-04-26T11:29:44.707Z,7388
2018-04-26T11:31:07.147Z,6272
2018-04-26T11:32:28.797Z,5392
2018-04-26T11:33:50.880Z,4984
2018-04-26T11:35:12.683Z,5032
2018-04-26T11:36:34.773Z,5572
2018-04-26T11:37:56.847Z,7044
2018-04-26T11:39:18.646Z,8976
2018-04-26T11:40:40.728Z,11796
2018-04-26T11:42:02.792Z,14440
2018-04-26T11:43:24.866Z,15080
2018-04-26T11:44:46.699Z,18432
2018-04-26T11:46:08.518Z,20928
2018-04-26T11:47:30.676Z,21088
2018-04-26T11:48:52.840Z,18400
2018-04-26T11:50:14.901Z,14244
2018-04-26T11:51:36.725Z,11928
2018-04-26T11:52:58.820Z,10232
2018-04-26T11:54:20.626Z,8896
2018-04-26T11:55:42.489Z,8068
2018-04-26T11:57:04.566Z,7596
2018-04-26T11:58:26.091Z,7292
2018-04-26T11:59:47.648Z,7060
2018-04-26T12:01:09.455Z,6972
2018-04-26T12:02:31.432Z,6908
2018-04-26T12:03:53.806Z,6888
2018-04-26T12:05:15.628Z,6944
2018-04-26T12:06:37.668Z,7392
2018-04-26T12:07:59.855Z,8040
2018-04-26T12:09:21.936Z,9512
2018-04-26T12:10:43.781Z,11240
2018-04-26T12:12:05.856Z,13252
2018-04-26T12:13:27.750Z,15764
2018-04-26T12:14:49.837Z,17504
2018-04-26T12:16:11.922Z,15884
2018-04-26T12:17:33.731Z,12888
2018-04-26T12:18:55.539Z,10784
2018-04-26T12:20:17.656Z,9968
2018-04-26T12:21:39.724Z,9892
2018-04-26T12:23:01.811Z,9976
2018-04-26T12:24:24.062Z,10672
2018-04-26T12:25:45.889Z,11232
2018-04-26T12:27:07.982Z,15844
2018-04-26T12:28:30.088Z,20160
2018-04-26T12:29:52.159Z,19456
2018-04-26T12:31:13.990Z,23040
2018-04-26T12:32:36.072Z,17952
2018-04-26T12:33:58.158Z,17056
2018-04-26T12:35:19.769Z,18304
2018-04-26T12:36:41.565Z,17888
2018-04-26T12:38:03.639Z,15360
2018-04-26T12:39:25.199Z,13520
2018-04-26T12:40:47.024Z,13572
2018-04-26T12:42:09.100Z,15912
2018-04-26T12:43:31.045Z,20000
2018-04-26T12:44:52.871Z,21216
2018-04-26T12:46:14.987Z,19776
2018-04-26T12:47:37.063Z,17504
2018-04-26T12:48:59.160Z,15176
2018-04-26T12:50:21.345Z,9208
2018-04-26T12:51:42.936Z,6004
2018-04-26T12:53:04.503Z,5152
2018-04-26T12:54:26.048Z,4672
2018-04-26T12:55:47.342Z,5420
2018-04-26T12:57:09.413Z,6480
2018-04-26T12:58:31.418Z,5884
2018-04-26T12:59:53.532Z,4380
2018-04-26T13:01:15.355Z,5388
2018-04-26T13:02:37.175Z,5284
2018-04-26T13:03:59.280Z,4652
2018-04-26T13:05:21.203Z,5832
2018-04-26T13:06:43.029Z,8016
2018-04-26T13:08:04.975Z,10104
2018-04-26T13:09:27.080Z,10592
2018-04-26T13:10:48.933Z,9892
2018-04-26T13:12:10.739Z,9416
2018-04-26T13:13:32.843Z,9904
2018-04-26T13:14:54.972Z,12836
2018-04-26T13:16:16.790Z,14912
2018-04-26T13:17:39.319Z,18784
2018-04-26T13:19:01.394Z,20480
2018-04-26T13:20:23.240Z,22080
2018-04-26T13:21:45.398Z,20352
2018-04-26T13:23:07.507Z,18208
2018-04-26T13:24:29.631Z,16172
2018-04-26T13:25:51.700Z,14816
2018-04-26T13:27:13.957Z,14232
2018-04-26T13:28:36.113Z,13112
2018-04-26T13:29:57.843Z,10072
2018-04-26T13:31:19.753Z,11548
2018-04-26T13:32:41.499Z,13144
2018-04-26T13:34:03.344Z,13876
2018-04-26T13:35:25.454Z,13252
2018-04-26T13:36:47.554Z,13048
2018-04-26T13:38:09.387Z,13820
2018-04-26T13:39:31.234Z,15132
2018-04-26T13:40:53.341Z,14104
2018-04-26T13:42:14.973Z,14884
2018-04-26T13:43:37.066Z,15544
2018-04-26T13:44:59.150Z,15276
2018-04-26T13:46:21.208Z,15336
2018-04-26T13:47:42.775Z,13732
2018-04-26T13:49:04.632Z,12904
2018-04-26T13:50:26.443Z,11636
2018-04-26T13:51:48.503Z,10472
2018-04-26T13:53:10.662Z,14556
2018-04-26T13:54:32.469Z,20672
2018-04-26T13:55:54.539Z,17824
2018-04-26T13:57:16.468Z,13232
2018-04-26T13:58:38.054Z,11264
2018-04-26T14:00:00.132Z,9460
2018-04-26T14:01:21.431Z,8496
2018-04-26T14:02:43.519Z,8172
2018-04-26T14:04:05.087Z,8784
2018-04-26T14:05:26.912Z,9892
2018-04-26T14:06:48.846Z,11640
2018-04-26T14:08:10.965Z,13208
2018-04-26T14:09:33.082Z,15212
2018-04-26T14:10:54.661Z,16544
2018-04-26T14:12:16.968Z,16576
2018-04-26T14:13:39.141Z,17248
2018-04-26T14:15:01.005Z,16512
2018-04-26T14:16:23.125Z,12648
2018-04-26T14:17:45.242Z,8832
2018-04-26T14:19:07.332Z,6740
2018-04-26T14:20:29.457Z,6508
2018-04-26T14:21:51.574Z,6676
2018-04-26T14:23:13.903Z,9112
2018-04-26T14:24:36.204Z,10276
2018-04-26T14:25:58.026Z,12880
2018-04-26T14:27:19.852Z,16736
2018-04-26T14:28:41.709Z,18944
2018-04-26T14:30:03.790Z,17504
2018-04-26T14:31:25.374Z,14656
2018-04-26T14:32:46.957Z,15548
2018-04-26T14:34:09.056Z,14556
2018-04-26T14:35:30.900Z,11420
2018-04-26T14:36:53.005Z,7344
2018-04-26T14:38:15.109Z,5016
2018-04-26T14:39:37.218Z,5196
2018-04-26T14:40:59.322Z,6368
2018-04-26T14:42:21.425Z,7136
2018-04-26T14:43:43.298Z,7864
2018-04-26T14:45:05.386Z,8528
2018-04-26T14:46:27.258Z,12300
2018-04-26T14:47:49.357Z,13172
2018-04-26T14:49:11.441Z,8632
2018-04-26T14:50:33.522Z,5368
2018-04-26T14:51:55.396Z,3652
2018-04-26T14:53:17.497Z,3972
2018-04-26T14:54:39.588Z,5432
2018-04-26T14:56:01.709Z,6036
2018-04-26T14:57:23.823Z,5200
2018-04-26T14:58:45.630Z,6836
2018-04-26T15:00:07.717Z,9476
2018-04-26T15:01:29.533Z,13604
2018-04-26T15:02:51.140Z,18816
2018-04-26T15:04:12.693Z,20736
2018-04-26T15:05:35.012Z,19040
2018-04-26T15:06:57.111Z,16416
2018-04-26T15:08:19.209Z,15440
2018-04-26T15:09:41.291Z,14148
2018-04-26T15:11:03.117Z,13296
2018-04-26T15:12:25.230Z,13828
2018-04-26T15:13:47.315Z,15056
2018-04-26T15:15:09.137Z,15076
2018-04-26T15:16:30.995Z,15084
2018-04-26T15:17:53.087Z,15016
2018-04-26T15:19:14.408Z,13528
2018-04-26T15:20:36.243Z,11352
2018-04-26T15:21:58.568Z,10516
2018-04-26T15:23:20.238Z,9352
2018-04-26T15:24:42.321Z,8628
2018-04-26T15:26:04.417Z,8040
2018-04-26T15:27:26.272Z,6816
2018-04-26T15:28:48.382Z,6328
2018-04-26T15:30:10.481Z,6160
2018-04-26T15:31:32.557Z,5756
2018-04-26T15:32:54.680Z,5440
2018-04-26T15:34:16.781Z,4660
2018-04-26T15:35:38.595Z,4452
2018-04-26T15:37:00.165Z,4480
2018-04-26T15:38:22.264Z,4932
2018-04-26T15:39:44.115Z,5644
2018-04-26T15:41:06.209Z,6028
2018-04-26T15:42:28.304Z,6556
2018-04-26T15:43:49.909Z,7920
2018-04-26T15:45:12.023Z,8644
2018-04-26T15:46:34.160Z,8092
2018-04-26T15:47:56.241Z,7252
2018-04-26T15:49:18.321Z,7328
2018-04-26T15:50:40.451Z,7872
2018-04-26T15:52:02.574Z,8968
2018-04-26T15:53:24.721Z,10648
2018-04-26T15:54:46.832Z,12284
2018-04-26T15:56:08.916Z,13976
2018-04-26T15:57:31.011Z,15020
2018-04-26T15:58:53.312Z,12536
2018-04-26T16:00:14.850Z,8340
2018-04-26T16:01:36.174Z,7136
2018-04-26T16:02:58.439Z,6524
2018-04-26T16:04:20.506Z,6532
2018-04-26T16:05:42.608Z,7580
2018-04-26T16:07:04.707Z,11284
2018-04-26T16:08:26.532Z,11508
2018-04-26T16:09:48.750Z,12236
2018-04-26T16:11:10.575Z,8756
2018-04-26T16:12:32.684Z,8556
2018-04-26T16:13:54.513Z,8596
2018-04-26T16:15:16.356Z,8624
2018-04-26T16:16:38.194Z,8756
2018-04-26T16:18:00.316Z,6764
2018-04-26T16:19:22.419Z,5508
2018-04-26T16:20:44.232Z,5720
2018-04-26T16:22:06.062Z,6420
2018-04-26T16:23:27.619Z,7268
2018-04-26T16:24:49.708Z,8324
2018-04-26T16:26:11.788Z,8640
2018-04-26T16:27:33.902Z,9008
2018-04-26T16:28:55.756Z,9152
2018-04-26T16:30:17.846Z,9096
2018-04-26T16:31:39.754Z,7956
2018-04-26T16:33:01.862Z,7280
2018-04-26T16:34:23.438Z,6900
2018-04-26T16:35:45.266Z,6400
2018-04-26T16:37:07.102Z,6512
2018-04-26T16:38:29.227Z,7264
2018-04-26T16:39:51.339Z,8020
2018-04-26T16:41:13.432Z,8876
2018-04-26T16:42:35.535Z,10060
2018-04-26T16:43:57.649Z,8264
2018-04-26T16:45:19.725Z,5900
2018-04-26T16:46:41.846Z,5240
2018-04-26T16:48:03.954Z,5516
2018-04-26T16:49:25.790Z,6228
2018-04-26T16:50:47.610Z,6392
2018-04-26T16:52:09.693Z,6804
2018-04-26T16:53:31.534Z,5272
2018-04-26T16:54:53.644Z,4308
2018-04-26T16:56:15.750Z,3860
2018-04-26T16:57:37.309Z,3644
2018-04-26T16:58:58.880Z,3668
2018-04-26T17:00:20.449Z,3936
2018-04-26T17:01:42.521Z,4552
2018-04-26T17:03:04.357Z,5020
2018-04-26T17:04:26.779Z,5488
2018-04-26T17:05:48.378Z,5596
2018-04-26T17:07:10.655Z,5196
2018-04-26T17:08:32.859Z,5128
2018-04-26T17:09:54.741Z,4888
2018-04-26T17:11:16.859Z,4624
2018-04-26T17:12:38.687Z,4120
2018-04-26T17:14:00.517Z,3764
2018-04-26T17:15:22.806Z,3508
2018-04-26T17:16:44.424Z,3812
2018-04-26T17:18:06.270Z,4088
2018-04-26T17:19:28.379Z,4288
2018-04-26T17:20:50.212Z,4096
2018-04-26T17:22:12.392Z,4172
2018-04-26T17:23:34.238Z,4956
2018-04-26T17:24:56.431Z,6140
2018-04-26T17:26:18.278Z,6388
2018-04-26T17:27:39.844Z,5224
2018-04-26T17:29:01.729Z,4220
2018-04-26T17:30:23.835Z,3836
2018-04-26T17:31:45.746Z,3732
2018-04-26T17:33:07.869Z,3468
2018-04-26T17:34:30.016Z,3692
2018-04-26T17:35:52.129Z,3460
2018-04-26T17:37:13.946Z,3692
2018-04-26T17:38:36.123Z,3556
2018-04-26T17:39:58.208Z,3340
2018-04-26T17:41:20.341Z,3144
2018-04-26T17:42:42.537Z,2960
2018-04-26T17:44:04.685Z,2928
2018-04-26T17:45:26.247Z,3240
2018-04-26T17:46:48.149Z,3064
2018-04-26T17:48:10.468Z,2776
2018-04-26T17:49:32.589Z,2588
2018-04-26T17:50:54.704Z,2548
2018-04-26T17:52:16.793Z,2516
2018-04-26T17:53:39.208Z,2476
2018-04-26T17:55:00.797Z,2416
2018-04-26T17:56:22.967Z,2348
2018-04-26T17:57:45.065Z,2276
2018-04-26T17:59:06.912Z,2216
2018-04-26T18:00:28.806Z,2164
2018-04-26T18:01:50.644Z,2104
2018-04-26T18:03:12.791Z,2008
2018-04-26T18:04:34.902Z,1924
2018-04-26T18:05:57.064Z,1852
2018-04-26T18:07:19.208Z,1784
2018-04-26T18:08:41.287Z,1728
2018-04-26T18:10:03.408Z,1656
2018-04-26T18:11:25.268Z,1588
2018-04-26T18:12:47.163Z,1520
2018-04-26T18:14:09.240Z,1456
2018-04-26T18:15:31.126Z,1388
2018-04-26T18:16:53.249Z,1372
2018-04-26T18:18:15.103Z,1380
2018-04-26T18:19:37.049Z,1184
2018-04-26T18:20:59.243Z,1164
2018-04-26T18:22:21.092Z,1068
2018-04-26T18:23:43.165Z,972
2018-04-26T18:25:05.270Z,932